createdAt,value
2023-03-26T00:00:54.892Z,987.71
2023-03-26T00:01:54.968Z,987.72
2023-03-26T00:02:54.888Z,987.73
2023-03-26T00:03:54.887Z,987.67
2023-03-26T00:04:54.856Z,987.64
2023-03-26T00:05:55.042Z,987.68
2023-03-26T00:06:54.853Z,987.61
2023-03-26T00:07:54.863Z,987.62
2023-03-26T00:08:54.827Z,987.62
2023-03-26T00:09:54.822Z,987.64
2023-03-26T00:10:54.812Z,987.66
2023-03-26T00:11:54.810Z,987.64
2023-03-26T00:12:54.791Z,987.70
2023-03-26T00:13:54.810Z,987.70
2023-03-26T00:14:54.784Z,987.68
2023-03-26T00:15:54.869Z,987.69
2023-03-26T00:16:54.785Z,987.69
2023-03-26T00:17:54.763Z,987.65
2023-03-26T00:18:54.738Z,987.64
2023-03-26T00:19:54.807Z,987.66
2023-03-26T00:20:54.726Z,987.70
2023-03-26T00:21:54.714Z,987.70
2023-03-26T00:22:54.716Z,987.71
2023-03-26T00:23:54.690Z,987.74
2023-03-26T00:24:54.693Z,987.76
2023-03-26T00:25:54.984Z,987.79
2023-03-26T00:26:54.679Z,987.80
2023-03-26T00:27:54.679Z,987.81
2023-03-26T00:28:54.840Z,987.82
2023-03-26T00:29:54.665Z,987.84
2023-03-26T00:30:54.680Z,987.84
2023-03-26T00:31:54.737Z,987.81
2023-03-26T00:32:54.661Z,987.81
2023-03-26T00:33:54.649Z,987.79
2023-03-26T00:34:54.639Z,987.77
2023-03-26T00:35:54.812Z,987.78
2023-03-26T00:36:54.621Z,987.77
2023-03-26T00:37:54.711Z,987.81
2023-03-26T00:38:54.619Z,987.84
2023-03-26T00:39:54.597Z,987.81
2023-03-26T00:40:55.614Z,987.84
2023-03-26T00:41:54.938Z,987.82
2023-03-26T00:42:54.578Z,987.81
2023-03-26T00:43:54.648Z,987.83
2023-03-26T00:44:54.557Z,987.80
2023-03-26T00:45:54.889Z,987.78
2023-03-26T00:46:54.548Z,987.77
2023-03-26T00:47:54.620Z,987.77
2023-03-26T00:48:54.544Z,987.79
2023-03-26T00:49:54.599Z,987.79
2023-03-26T00:50:54.539Z,987.80
2023-03-26T00:51:54.522Z,987.83
2023-03-26T00:52:54.488Z,987.84
2023-03-26T00:53:54.497Z,987.84
2023-03-26T00:54:54.519Z,987.81
2023-03-26T00:55:55.084Z,987.80
2023-03-26T00:56:54.533Z,987.79
2023-03-26T00:57:54.463Z,987.83
2023-03-26T00:58:54.459Z,987.82
2023-03-26T00:59:54.451Z,987.82
2023-03-26T01:00:54.447Z,987.80
2023-03-26T01:01:54.529Z,987.81
2023-03-26T01:02:54.504Z,987.82
2023-03-26T01:04:06.852Z,987.82
2023-03-26T01:04:55.582Z,987.81
2023-03-26T01:05:54.655Z,987.79
2023-03-26T01:06:54.388Z,987.81
2023-03-26T01:07:54.442Z,987.83
2023-03-26T01:08:54.418Z,987.83
2023-03-26T01:09:54.396Z,987.80
2023-03-26T01:10:54.375Z,987.82
2023-03-26T01:11:54.387Z,987.82
2023-03-26T01:12:54.347Z,987.80
2023-03-26T01:13:54.417Z,987.80
2023-03-26T01:14:54.335Z,987.80
2023-03-26T01:15:54.517Z,987.81
2023-03-26T01:16:54.340Z,987.81
2023-03-26T01:17:54.363Z,987.80
2023-03-26T01:18:54.336Z,987.79
2023-03-26T01:19:54.340Z,987.78
2023-03-26T01:20:54.295Z,987.78
2023-03-26T01:21:54.291Z,987.77
2023-03-26T01:22:54.314Z,987.75
2023-03-26T01:23:54.306Z,987.75
2023-03-26T01:24:54.334Z,987.75
2023-03-26T01:25:54.471Z,987.74
2023-03-26T01:26:54.290Z,987.72
2023-03-26T01:27:54.231Z,987.73
2023-03-26T01:28:54.255Z,987.70
2023-03-26T01:29:54.282Z,987.72
2023-03-26T01:30:54.215Z,987.69
2023-03-26T01:31:54.286Z,987.69
2023-03-26T01:32:54.264Z,987.69
2023-03-26T01:33:54.214Z,987.68
2023-03-26T01:34:54.187Z,987.69
2023-03-26T01:35:54.430Z,987.70
2023-03-26T01:36:54.183Z,987.68
2023-03-26T01:37:54.227Z,987.68
2023-03-26T01:38:54.183Z,987.66
2023-03-26T01:39:54.179Z,987.66
2023-03-26T01:40:54.147Z,987.66
2023-03-26T01:41:54.158Z,987.65
2023-03-26T01:42:54.139Z,987.63
2023-03-26T01:43:54.193Z,987.60
2023-03-26T01:44:54.118Z,987.57
2023-03-26T01:45:54.215Z,987.55
2023-03-26T01:46:54.127Z,987.54
2023-03-26T01:47:54.130Z,987.54
2023-03-26T01:48:54.096Z,987.51
2023-03-26T01:49:54.183Z,987.49
2023-03-26T01:50:54.105Z,987.48
2023-03-26T01:51:54.099Z,987.47
2023-03-26T01:52:54.089Z,987.47
2023-03-26T01:53:54.107Z,987.46
2023-03-26T01:54:54.042Z,987.45
2023-03-26T01:55:54.203Z,987.44
2023-03-26T01:56:54.080Z,987.42
2023-03-26T01:57:54.017Z,987.41
2023-03-26T01:58:54.018Z,987.41
2023-03-26T01:59:54.044Z,987.41
2023-03-26T02:00:54.008Z,987.39
2023-03-26T02:01:54.311Z,987.37
2023-03-26T02:02:54.085Z,987.35
2023-03-26T02:03:53.959Z,987.35
2023-03-26T02:04:53.970Z,987.35
2023-03-26T02:05:54.130Z,987.35
2023-03-26T02:06:53.969Z,987.34
2023-03-26T02:07:53.976Z,987.32
2023-03-26T02:08:53.938Z,987.32
2023-03-26T02:09:53.940Z,987.33
2023-03-26T02:10:53.942Z,987.33
2023-03-26T02:11:53.913Z,987.32
2023-03-26T02:12:53.938Z,987.33
2023-03-26T02:13:53.956Z,987.32
2023-03-26T02:14:53.888Z,987.30
2023-03-26T02:15:54.071Z,987.29
2023-03-26T02:16:53.885Z,987.29
2023-03-26T02:17:53.928Z,987.27
2023-03-26T02:18:53.856Z,987.26
2023-03-26T02:19:53.885Z,987.27
2023-03-26T02:20:53.869Z,987.27
2023-03-26T02:21:53.836Z,987.27
2023-03-26T02:22:53.876Z,987.25
2023-03-26T02:23:53.838Z,987.24
2023-03-26T02:24:53.808Z,987.22
2023-03-26T02:25:54.036Z,987.21
2023-03-26T02:26:53.826Z,987.19
2023-03-26T02:27:53.821Z,987.22
2023-03-26T02:28:53.802Z,987.21
2023-03-26T02:29:53.773Z,987.22
2023-03-26T02:30:53.790Z,987.22
2023-03-26T02:31:53.835Z,987.20
2023-03-26T02:32:53.812Z,987.19
2023-03-26T02:33:53.767Z,987.19
2023-03-26T02:34:53.764Z,987.19
2023-03-26T02:36:36.907Z,987.18
2023-03-26T02:36:53.750Z,987.17
2023-03-26T02:37:53.797Z,987.17
2023-03-26T02:38:53.738Z,987.15
2023-03-26T02:39:53.700Z,987.16
2023-03-26T02:40:53.710Z,987.17
2023-03-26T02:41:53.732Z,987.17
2023-03-26T02:42:53.708Z,987.18
2023-03-26T02:43:53.749Z,987.18
2023-03-26T02:44:53.699Z,987.17
2023-03-26T02:45:53.982Z,987.17
2023-03-26T02:46:53.690Z,987.17
2023-03-26T02:47:53.674Z,987.16
2023-03-26T02:48:53.647Z,987.16
2023-03-26T02:49:53.710Z,987.13
2023-03-26T02:50:53.678Z,987.11
2023-03-26T02:51:53.668Z,987.07
2023-03-26T02:52:53.632Z,987.03
2023-03-26T02:53:53.672Z,987.01
2023-03-26T02:54:53.637Z,987.00
2023-03-26T02:55:53.959Z,986.99
2023-03-26T02:56:53.643Z,986.96
2023-03-26T02:57:53.595Z,986.93
2023-03-26T02:58:53.611Z,986.90
2023-03-26T02:59:53.567Z,986.86
2023-03-26T03:00:53.607Z,986.82
2023-03-26T03:01:53.708Z,986.76
2023-03-26T03:02:53.659Z,986.71
2023-03-26T03:03:53.557Z,986.73
2023-03-26T03:04:53.567Z,986.76
2023-03-26T03:05:53.714Z,986.75
2023-03-26T03:06:53.535Z,986.77
2023-03-26T03:07:54.030Z,986.78
2023-03-26T03:08:53.551Z,986.77
2023-03-26T03:09:53.506Z,986.75
2023-03-26T03:10:53.511Z,986.73
2023-03-26T03:11:53.509Z,986.72
2023-03-26T03:12:53.508Z,986.72
2023-03-26T03:13:53.532Z,986.70
2023-03-26T03:14:53.489Z,986.70
2023-03-26T03:15:53.722Z,986.71
2023-03-26T03:16:53.495Z,986.71
2023-03-26T03:17:53.505Z,986.72
2023-03-26T03:18:53.448Z,986.72
2023-03-26T03:19:53.510Z,986.72
2023-03-26T03:20:53.458Z,986.68
2023-03-26T03:21:53.430Z,986.67
2023-03-26T03:22:53.421Z,986.65
2023-03-26T03:23:53.410Z,986.66
2023-03-26T03:24:53.412Z,986.65
2023-03-26T03:25:53.782Z,986.64
2023-03-26T03:26:53.370Z,986.63
2023-03-26T03:27:53.373Z,986.62
2023-03-26T03:28:53.398Z,986.62
2023-03-26T03:29:53.394Z,986.61
2023-03-26T03:30:53.453Z,986.58
2023-03-26T03:31:53.456Z,986.57
2023-03-26T03:32:53.401Z,986.55
2023-03-26T03:33:53.320Z,986.51
2023-03-26T03:34:53.340Z,986.50
2023-03-26T03:35:53.605Z,986.49
2023-03-26T03:36:53.332Z,986.49
2023-03-26T03:37:53.354Z,986.48
2023-03-26T03:38:53.325Z,986.47
2023-03-26T03:39:53.270Z,986.44
2023-03-26T03:40:53.289Z,986.43
2023-03-26T03:41:53.315Z,986.40
2023-03-26T03:42:53.275Z,986.40
2023-03-26T03:43:53.320Z,986.41
2023-03-26T03:44:53.270Z,986.43
2023-03-26T03:45:53.561Z,986.43
2023-03-26T03:46:53.253Z,986.43
2023-03-26T03:47:53.257Z,986.42
2023-03-26T03:48:53.253Z,986.43
2023-03-26T03:49:53.281Z,986.42
2023-03-26T03:50:53.194Z,986.43
2023-03-26T03:51:53.213Z,986.43
2023-03-26T03:52:53.219Z,986.42
2023-03-26T03:53:53.189Z,986.40
2023-03-26T03:54:53.152Z,986.37
2023-03-26T03:55:53.706Z,986.37
2023-03-26T03:56:53.271Z,986.36
2023-03-26T03:57:53.180Z,986.33
2023-03-26T03:58:53.164Z,986.31
2023-03-26T03:59:53.135Z,986.30
2023-03-26T04:00:53.148Z,986.31
2023-03-26T04:01:53.156Z,986.32
2023-03-26T04:02:53.144Z,986.33
2023-03-26T04:03:53.187Z,986.34
2023-03-26T04:04:53.123Z,986.33
2023-03-26T04:05:53.250Z,986.32
2023-03-26T04:06:53.082Z,986.32
2023-03-26T04:07:53.125Z,986.32
2023-03-26T04:08:53.074Z,986.32
2023-03-26T04:09:53.073Z,986.31
2023-03-26T04:10:53.042Z,986.29
2023-03-26T04:11:53.079Z,986.29
2023-03-26T04:12:53.033Z,986.29
2023-03-26T04:13:53.094Z,986.30
2023-03-26T04:14:53.039Z,986.30
2023-03-26T04:15:53.260Z,986.30
2023-03-26T04:16:53.023Z,986.29
2023-03-26T04:17:53.067Z,986.28
2023-03-26T04:18:53.019Z,986.27
2023-03-26T04:19:53.074Z,986.25
2023-03-26T04:20:52.984Z,986.23
2023-03-26T04:21:52.994Z,986.23
2023-03-26T04:22:53.000Z,986.21
2023-03-26T04:23:52.964Z,986.20
2023-03-26T04:24:52.949Z,986.19
2023-03-26T04:25:53.148Z,986.18
2023-03-26T04:26:52.939Z,986.17
2023-03-26T04:27:52.938Z,986.15
2023-03-26T04:28:52.926Z,986.12
2023-03-26T04:29:52.934Z,986.11
2023-03-26T04:30:52.926Z,986.10
2023-03-26T04:31:52.988Z,986.09
2023-03-26T04:32:52.965Z,986.09
2023-03-26T04:33:52.912Z,986.08
2023-03-26T04:34:52.899Z,986.05
2023-03-26T04:35:53.087Z,986.03
2023-03-26T04:36:53.013Z,986.01
2023-03-26T04:37:52.907Z,986.00
2023-03-26T04:38:52.863Z,985.99
2023-03-26T04:39:52.858Z,985.96
2023-03-26T04:40:52.853Z,985.94
2023-03-26T04:41:52.836Z,985.93
2023-03-26T04:42:52.855Z,985.92
2023-03-26T04:43:52.834Z,985.92
2023-03-26T04:44:52.847Z,985.90
2023-03-26T04:45:53.060Z,985.88
2023-03-26T04:46:52.824Z,985.87
2023-03-26T04:47:53.042Z,985.84
2023-03-26T04:48:52.793Z,985.83
2023-03-26T04:49:52.822Z,985.80
2023-03-26T04:50:52.779Z,985.78
2023-03-26T04:51:52.781Z,985.77
2023-03-26T04:52:52.756Z,985.76
2023-03-26T04:53:52.770Z,985.74
2023-03-26T04:54:52.749Z,985.72
2023-03-26T04:55:53.012Z,985.70
2023-03-26T04:56:52.780Z,985.69
2023-03-26T04:57:52.717Z,985.68
2023-03-26T04:58:52.717Z,985.66
2023-03-26T04:59:52.706Z,985.65
2023-03-26T05:00:52.757Z,985.64
2023-03-26T05:01:52.726Z,985.63
2023-03-26T05:02:52.731Z,985.63
2023-03-26T05:03:52.724Z,985.64
2023-03-26T05:04:52.686Z,985.64
2023-03-26T05:05:52.899Z,985.63
2023-03-26T05:06:52.680Z,985.61
2023-03-26T05:07:52.701Z,985.59
2023-03-26T05:08:52.635Z,985.57
2023-03-26T05:09:52.630Z,985.56
2023-03-26T05:10:52.828Z,985.54
2023-03-26T05:11:52.597Z,985.53
2023-03-26T05:13:13.880Z,985.53
2023-03-26T05:13:52.623Z,985.51
2023-03-26T05:14:52.624Z,985.48
2023-03-26T05:15:52.610Z,985.46
2023-03-26T05:16:52.732Z,985.44
2023-03-26T05:17:52.632Z,985.43
2023-03-26T05:18:52.627Z,985.42
2023-03-26T05:19:52.574Z,985.40
2023-03-26T05:20:52.810Z,985.39
2023-03-26T05:21:52.529Z,985.37
2023-03-26T05:22:52.571Z,985.36
2023-03-26T05:23:52.599Z,985.35
2023-03-26T05:24:52.552Z,985.33
2023-03-26T05:25:52.502Z,985.32
2023-03-26T05:26:52.503Z,985.31
2023-03-26T05:27:52.489Z,985.29
2023-03-26T05:28:52.816Z,985.28
2023-03-26T05:29:52.498Z,985.26
2023-03-26T05:30:52.735Z,985.25
2023-03-26T05:31:52.471Z,985.24
2023-03-26T05:32:52.524Z,985.22
2023-03-26T05:33:52.526Z,985.20
2023-03-26T05:34:52.448Z,985.18
2023-03-26T05:35:52.509Z,985.16
2023-03-26T05:36:52.538Z,985.14
2023-03-26T05:37:52.428Z,985.12
2023-03-26T05:38:52.496Z,985.11
2023-03-26T05:39:52.426Z,985.07
2023-03-26T05:40:52.566Z,985.05
2023-03-26T05:41:52.422Z,985.02
2023-03-26T05:42:52.433Z,985.00
2023-03-26T05:43:52.388Z,984.99
2023-03-26T05:45:12.061Z,984.97
2023-03-26T05:45:52.430Z,984.96
2023-03-26T05:46:52.388Z,984.94
2023-03-26T05:47:52.432Z,984.93
2023-03-26T05:48:52.429Z,984.92
2023-03-26T05:49:52.352Z,984.90
2023-03-26T05:50:52.508Z,984.89
2023-03-26T05:51:54.987Z,984.87
2023-03-26T05:52:52.346Z,984.86
2023-03-26T05:53:52.330Z,984.86
2023-03-26T05:54:52.351Z,984.84
2023-03-26T05:55:52.331Z,984.83
2023-03-26T05:57:02.345Z,984.83
2023-03-26T05:57:53.303Z,984.84
2023-03-26T05:58:52.297Z,984.84
2023-03-26T05:59:52.258Z,984.83
2023-03-26T06:00:52.477Z,984.83
2023-03-26T06:01:52.235Z,984.82
2023-03-26T06:02:52.297Z,984.80
2023-03-26T06:03:52.316Z,984.78
2023-03-26T06:04:52.319Z,984.75
2023-03-26T06:05:52.254Z,984.73
2023-03-26T06:06:52.259Z,984.71
2023-03-26T06:07:52.252Z,984.69
2023-03-26T06:09:01.350Z,984.67
2023-03-26T06:09:53.207Z,984.65
2023-03-26T06:10:52.270Z,984.63
2023-03-26T06:11:52.206Z,984.61
2023-03-26T06:12:52.446Z,984.59
2023-03-26T06:13:52.196Z,984.57
2023-03-26T06:14:52.187Z,984.56
2023-03-26T06:15:52.193Z,984.55
2023-03-26T06:16:52.182Z,984.54
2023-03-26T06:17:52.197Z,984.54
2023-03-26T06:18:52.370Z,984.54
2023-03-26T06:19:52.138Z,984.54
2023-03-26T06:20:52.190Z,984.55
2023-03-26T06:21:52.146Z,984.55
2023-03-26T06:22:52.133Z,984.54
2023-03-26T06:23:52.112Z,984.53
2023-03-26T06:24:52.140Z,984.50
2023-03-26T06:25:52.093Z,984.47
2023-03-26T06:26:52.088Z,984.44
2023-03-26T06:27:52.092Z,984.42
2023-03-26T06:28:52.090Z,984.41
2023-03-26T06:29:52.064Z,984.40
2023-03-26T06:30:52.269Z,984.39
2023-03-26T06:31:52.066Z,984.38
2023-03-26T06:32:52.096Z,984.37
2023-03-26T06:33:52.012Z,984.36
2023-03-26T06:34:52.008Z,984.35
2023-03-26T06:35:52.067Z,984.33
2023-03-26T06:36:52.066Z,984.33
2023-03-26T06:37:51.993Z,984.32
2023-03-26T06:38:52.007Z,984.33
2023-03-26T06:39:51.996Z,984.32
2023-03-26T06:40:52.051Z,984.31
2023-03-26T06:41:52.001Z,984.30
2023-03-26T06:43:07.734Z,984.30
2023-03-26T06:43:52.974Z,984.30
2023-03-26T06:44:51.947Z,984.29
2023-03-26T06:45:52.015Z,984.28
2023-03-26T06:46:51.954Z,984.27
2023-03-26T06:47:52.031Z,984.26
2023-03-26T06:48:51.961Z,984.26
2023-03-26T06:49:51.920Z,984.25
2023-03-26T06:50:52.078Z,984.25
2023-03-26T06:51:51.930Z,984.24
2023-03-26T06:52:51.897Z,984.24
2023-03-26T06:53:51.881Z,984.24
2023-03-26T06:54:51.910Z,984.24
2023-03-26T06:55:51.869Z,984.24
2023-03-26T06:56:51.899Z,984.23
2023-03-26T06:57:51.860Z,984.23
2023-03-26T06:58:51.832Z,984.22
2023-03-26T06:59:51.823Z,984.22
2023-03-26T07:00:51.866Z,984.21
2023-03-26T07:01:51.835Z,984.20
2023-03-26T07:02:51.920Z,984.19
2023-03-26T07:03:51.899Z,984.18
2023-03-26T07:04:51.830Z,984.17
2023-03-26T07:05:51.797Z,984.17
2023-03-26T07:06:51.818Z,984.17
2023-03-26T07:07:51.810Z,984.16
2023-03-26T07:08:51.765Z,984.14
2023-03-26T07:09:51.808Z,984.13
2023-03-26T07:10:51.844Z,984.12
2023-03-26T07:11:51.754Z,984.10
2023-03-26T07:12:51.775Z,984.09
2023-03-26T07:13:51.756Z,984.07
2023-03-26T07:14:51.769Z,984.06
2023-03-26T07:15:51.717Z,984.05
2023-03-26T07:16:51.768Z,984.05
2023-03-26T07:17:51.793Z,984.03
2023-03-26T07:18:51.723Z,984.02
2023-03-26T07:19:51.703Z,984.00
2023-03-26T07:20:51.811Z,983.97
2023-03-26T07:21:51.682Z,983.95
2023-03-26T07:22:51.667Z,983.93
2023-03-26T07:23:51.651Z,983.90
2023-03-26T07:24:52.081Z,983.89
2023-03-26T07:25:51.692Z,983.88
2023-03-26T07:26:51.697Z,983.87
2023-03-26T07:27:51.673Z,983.86
2023-03-26T07:29:05.181Z,983.84
2023-03-26T07:29:52.668Z,983.83
2023-03-26T07:30:51.603Z,983.82
2023-03-26T07:31:51.619Z,983.81
2023-03-26T07:32:51.612Z,983.79
2023-03-26T07:33:51.602Z,983.78
2023-03-26T07:34:51.571Z,983.76
2023-03-26T07:35:51.654Z,983.74
2023-03-26T07:36:51.551Z,983.71
2023-03-26T07:37:51.552Z,983.69
2023-03-26T07:38:51.545Z,983.66
2023-03-26T07:39:51.571Z,983.64
2023-03-26T07:40:51.575Z,983.62
2023-03-26T07:41:51.583Z,983.59
2023-03-26T07:42:51.531Z,983.56
2023-03-26T07:43:51.511Z,983.53
2023-03-26T07:44:51.499Z,983.52
2023-03-26T07:45:51.506Z,983.50
2023-03-26T07:46:51.508Z,983.48
2023-03-26T07:47:51.590Z,983.46
2023-03-26T07:48:51.500Z,983.45
2023-03-26T07:49:51.478Z,983.43
2023-03-26T07:50:51.489Z,983.41
2023-03-26T07:51:51.455Z,983.40
2023-03-26T07:52:51.472Z,983.40
2023-03-26T07:53:51.514Z,983.40
2023-03-26T07:54:51.461Z,983.39
2023-03-26T07:55:51.439Z,983.38
2023-03-26T07:56:52.652Z,983.37
2023-03-26T07:57:51.397Z,983.36
2023-03-26T07:58:51.419Z,983.36
2023-03-26T07:59:51.431Z,983.34
2023-03-26T08:00:51.369Z,983.34
2023-03-26T08:01:51.382Z,983.32
2023-03-26T08:02:51.425Z,983.32
2023-03-26T08:03:51.417Z,983.31
2023-03-26T08:04:51.645Z,983.30
2023-03-26T08:05:51.384Z,983.30
2023-03-26T08:06:51.335Z,983.29
2023-03-26T08:07:51.362Z,983.29
2023-03-26T08:08:51.393Z,983.28
2023-03-26T08:09:51.350Z,983.26
2023-03-26T08:10:51.337Z,983.24
2023-03-26T08:11:51.371Z,983.23
2023-03-26T08:12:51.328Z,983.21
2023-03-26T08:13:51.327Z,983.21
2023-03-26T08:14:51.322Z,983.21
2023-03-26T08:15:51.331Z,983.20
2023-03-26T08:16:51.265Z,983.18
2023-03-26T08:17:51.313Z,983.17
2023-03-26T08:18:51.298Z,983.15
2023-03-26T08:19:51.277Z,983.14
2023-03-26T08:20:51.269Z,983.13
2023-03-26T08:21:51.251Z,983.12
2023-03-26T08:22:51.249Z,983.13
2023-03-26T08:23:51.371Z,983.13
2023-03-26T08:24:51.229Z,983.14
2023-03-26T08:25:51.224Z,983.14
2023-03-26T08:26:51.215Z,983.15
2023-03-26T08:27:51.196Z,983.15
2023-03-26T08:28:51.201Z,983.15
2023-03-26T08:29:51.243Z,983.15
2023-03-26T08:30:51.248Z,983.14
2023-03-26T08:31:51.162Z,983.14
2023-03-26T08:32:51.193Z,983.14
2023-03-26T08:33:51.156Z,983.14
2023-03-26T08:34:51.172Z,983.14
2023-03-26T08:35:51.222Z,983.13
2023-03-26T08:36:51.141Z,983.12
2023-03-26T08:37:51.130Z,983.12
2023-03-26T08:38:51.106Z,983.11
2023-03-26T08:39:51.112Z,983.10
2023-03-26T08:40:51.105Z,983.09
2023-03-26T08:41:51.183Z,983.08
2023-03-26T08:42:51.100Z,983.08
2023-03-26T08:43:51.094Z,983.07
2023-03-26T08:44:51.076Z,983.07
2023-03-26T08:45:51.066Z,983.05
2023-03-26T08:46:51.142Z,983.04
2023-03-26T08:47:51.111Z,983.04
2023-03-26T08:48:51.041Z,983.04
2023-03-26T08:49:51.026Z,983.05
2023-03-26T08:50:51.011Z,983.05
2023-03-26T08:51:51.042Z,983.06
2023-03-26T08:52:51.003Z,983.08
2023-03-26T08:53:51.044Z,983.07
2023-03-26T08:54:50.987Z,983.08
2023-03-26T08:55:50.977Z,983.03
2023-03-26T08:56:51.053Z,983.09
2023-03-26T08:57:50.986Z,983.06
2023-03-26T08:58:50.988Z,983.05
2023-03-26T08:59:50.997Z,983.03
2023-03-26T09:00:50.958Z,983.03
2023-03-26T09:01:51.008Z,983.02
2023-03-26T09:02:51.002Z,983.01
2023-03-26T09:03:50.945Z,982.99
2023-03-26T09:04:50.957Z,982.99
2023-03-26T09:05:50.930Z,982.98
2023-03-26T09:06:50.906Z,983.00
2023-03-26T09:07:54.013Z,982.97
2023-03-26T09:08:53.956Z,982.98
2023-03-26T09:09:50.879Z,982.97
2023-03-26T09:10:50.879Z,982.98
2023-03-26T09:11:50.937Z,982.99
2023-03-26T09:12:50.888Z,982.97
2023-03-26T09:13:50.864Z,982.97
2023-03-26T09:14:50.876Z,982.95
2023-03-26T09:15:50.893Z,982.95
2023-03-26T09:16:50.849Z,982.93
2023-03-26T09:17:50.911Z,982.94
2023-03-26T09:18:50.845Z,982.94
2023-03-26T09:19:50.826Z,982.93
2023-03-26T09:20:50.816Z,982.91
2023-03-26T09:21:50.809Z,982.90
2023-03-26T09:22:50.780Z,982.90
2023-03-26T09:23:50.825Z,982.91
2023-03-26T09:24:50.794Z,982.89
2023-03-26T09:25:50.769Z,982.89
2023-03-26T09:26:50.781Z,982.89
2023-03-26T09:27:50.771Z,982.88
2023-03-26T09:28:50.744Z,982.88
2023-03-26T09:29:50.813Z,982.86
2023-03-26T09:30:50.747Z,982.85
2023-03-26T09:31:50.795Z,982.84
2023-03-26T09:32:50.754Z,982.82
2023-03-26T09:33:50.727Z,982.81
2023-03-26T09:34:50.729Z,982.79
2023-03-26T09:35:50.816Z,982.80
2023-03-26T09:36:50.699Z,982.80
2023-03-26T09:37:57.039Z,982.78
2023-03-26T09:38:51.683Z,982.78
2023-03-26T09:39:50.664Z,982.77
2023-03-26T09:40:52.360Z,982.76
2023-03-26T09:41:50.703Z,982.78
2023-03-26T09:42:50.628Z,982.76
2023-03-26T09:43:50.621Z,982.76
2023-03-26T09:44:50.629Z,982.75
2023-03-26T09:45:50.705Z,982.73
2023-03-26T09:46:50.613Z,982.72
2023-03-26T09:47:50.707Z,982.71
2023-03-26T09:48:50.604Z,982.70
2023-03-26T09:49:50.612Z,982.72
2023-03-26T09:50:50.577Z,982.72
2023-03-26T09:51:50.572Z,982.74
2023-03-26T09:52:50.565Z,982.73
2023-03-26T09:53:50.618Z,982.74
2023-03-26T09:54:50.575Z,982.77
2023-03-26T09:55:50.530Z,982.72
2023-03-26T09:56:50.582Z,982.74
2023-03-26T09:57:50.557Z,982.75
2023-03-26T09:58:50.511Z,982.75
2023-03-26T09:59:50.558Z,982.70
2023-03-26T10:00:50.525Z,982.72
2023-03-26T10:01:50.513Z,982.70
2023-03-26T10:02:52.319Z,982.72
2023-03-26T10:03:50.484Z,982.71
2023-03-26T10:04:50.498Z,982.72
2023-03-26T10:05:50.509Z,982.72
2023-03-26T10:06:50.471Z,982.70
2023-03-26T10:07:50.469Z,982.73
2023-03-26T10:08:50.455Z,982.72
2023-03-26T10:09:50.478Z,982.71
2023-03-26T10:10:50.434Z,982.69
2023-03-26T10:11:50.471Z,982.68
2023-03-26T10:12:50.445Z,982.68
2023-03-26T10:13:50.398Z,982.68
2023-03-26T10:14:50.420Z,982.68
2023-03-26T10:15:50.408Z,982.69
2023-03-26T10:16:50.403Z,982.67
2023-03-26T10:17:50.456Z,982.67
2023-03-26T10:18:50.406Z,982.68
2023-03-26T10:19:50.395Z,982.67
2023-03-26T10:20:50.354Z,982.66
2023-03-26T10:21:50.347Z,982.65
2023-03-26T10:22:50.335Z,982.65
2023-03-26T10:23:50.410Z,982.66
2023-03-26T10:24:50.374Z,982.64
2023-03-26T10:25:50.320Z,982.64
2023-03-26T10:27:09.284Z,982.64
2023-03-26T10:27:51.336Z,982.64
2023-03-26T10:28:50.298Z,982.64
2023-03-26T10:29:50.749Z,982.62
2023-03-26T10:30:50.337Z,982.62
2023-03-26T10:31:50.288Z,982.60
2023-03-26T10:32:50.307Z,982.59
2023-03-26T10:33:50.303Z,982.57
2023-03-26T10:34:50.271Z,982.59
2023-03-26T10:35:50.332Z,982.56
2023-03-26T10:36:50.228Z,982.54
2023-03-26T10:37:50.234Z,982.54
2023-03-26T10:38:50.235Z,982.54
2023-03-26T10:39:50.234Z,982.52
2023-03-26T10:40:50.216Z,982.51
2023-03-26T10:41:50.250Z,982.52
2023-03-26T10:42:50.220Z,982.52
2023-03-26T10:44:01.301Z,982.52
2023-03-26T10:44:51.170Z,982.49
2023-03-26T10:45:50.233Z,982.49
2023-03-26T10:46:50.273Z,982.46
2023-03-26T10:47:50.372Z,982.46
2023-03-26T10:48:50.158Z,982.43
2023-03-26T10:49:50.173Z,982.41
2023-03-26T10:50:50.122Z,982.38
2023-03-26T10:51:50.145Z,982.36
2023-03-26T10:52:50.162Z,982.36
2023-03-26T10:53:50.142Z,982.37
2023-03-26T10:54:50.118Z,982.37
2023-03-26T10:55:50.099Z,982.37
2023-03-26T10:56:50.107Z,982.36
2023-03-26T10:57:50.096Z,982.36
2023-03-26T10:58:50.546Z,982.36
2023-03-26T10:59:50.119Z,982.36
2023-03-26T11:00:50.124Z,982.34
2023-03-26T11:01:50.070Z,982.32
2023-03-26T11:02:50.074Z,982.32
2023-03-26T11:03:50.068Z,982.31
2023-03-26T11:04:50.018Z,982.29
2023-03-26T11:05:50.136Z,982.28
2023-03-26T11:06:50.038Z,982.27
2023-03-26T11:07:50.022Z,982.25
2023-03-26T11:08:50.002Z,982.23
2023-03-26T11:09:49.983Z,982.20
2023-03-26T11:10:49.994Z,982.17
2023-03-26T11:11:50.052Z,982.15
2023-03-26T11:12:49.994Z,982.11
2023-03-26T11:13:49.982Z,982.06
2023-03-26T11:14:49.972Z,982.00
2023-03-26T11:15:49.998Z,981.96
2023-03-26T11:16:49.950Z,981.93
2023-03-26T11:17:50.035Z,981.91
2023-03-26T11:18:49.948Z,981.88
2023-03-26T11:19:51.921Z,981.89
2023-03-26T11:20:49.908Z,981.91
2023-03-26T11:21:49.984Z,981.92
2023-03-26T11:22:49.894Z,981.93
2023-03-26T11:23:49.936Z,981.93
2023-03-26T11:24:50.914Z,981.93
2023-03-26T11:25:49.925Z,981.93
2023-03-26T11:26:49.874Z,981.95
2023-03-26T11:27:49.884Z,981.96
2023-03-26T11:29:03.903Z,981.96
2023-03-26T11:29:51.088Z,981.95
2023-03-26T11:30:49.882Z,981.94
2023-03-26T11:31:49.844Z,981.90
2023-03-26T11:32:49.869Z,981.88
2023-03-26T11:33:49.832Z,981.86
2023-03-26T11:34:49.850Z,981.85
2023-03-26T11:35:49.919Z,981.83
2023-03-26T11:36:49.827Z,981.82
2023-03-26T11:37:49.787Z,981.82
2023-03-26T11:38:49.802Z,981.82
2023-03-26T11:39:49.821Z,981.82
2023-03-26T11:40:49.786Z,981.82
2023-03-26T11:41:49.813Z,981.82
2023-03-26T11:42:49.778Z,981.82
2023-03-26T11:43:49.804Z,981.81
2023-03-26T11:44:49.758Z,981.79
2023-03-26T11:45:49.753Z,981.77
2023-03-26T11:46:49.798Z,981.77
2023-03-26T11:47:49.898Z,981.77
2023-03-26T11:48:49.747Z,981.77
2023-03-26T11:49:49.686Z,981.76
2023-03-26T11:50:49.692Z,981.75
2023-03-26T11:51:49.727Z,981.74
2023-03-26T11:52:49.711Z,981.72
2023-03-26T11:53:49.751Z,981.71
2023-03-26T11:54:49.719Z,981.68
2023-03-26T11:55:49.690Z,981.66
2023-03-26T11:57:04.863Z,981.63
2023-03-26T11:57:50.654Z,981.60
2023-03-26T11:58:49.644Z,981.58
2023-03-26T11:59:57.314Z,981.54
2023-03-26T12:00:50.637Z,981.50
2023-03-26T12:01:49.702Z,981.47
2023-03-26T12:02:49.665Z,981.46
2023-03-26T12:03:49.584Z,981.48
2023-03-26T12:04:49.642Z,981.49
2023-03-26T12:05:49.674Z,981.48
2023-03-26T12:06:49.604Z,981.46
2023-03-26T12:07:49.598Z,981.44
2023-03-26T12:08:49.588Z,981.41
2023-03-26T12:09:49.583Z,981.39
2023-03-26T12:10:49.563Z,981.36
2023-03-26T12:11:49.567Z,981.34
2023-03-26T12:12:49.539Z,981.33
2023-03-26T12:13:49.545Z,981.33
2023-03-26T12:14:49.522Z,981.31
2023-03-26T12:15:49.505Z,981.31
2023-03-26T12:16:49.580Z,981.33
2023-03-26T12:17:49.607Z,981.33
2023-03-26T12:18:49.509Z,981.32
2023-03-26T12:19:49.492Z,981.33
2023-03-26T12:20:49.501Z,981.33
2023-03-26T12:21:49.510Z,981.30
2023-03-26T12:22:49.564Z,981.27
2023-03-26T12:23:49.467Z,981.25
2023-03-26T12:24:49.442Z,981.24
2023-03-26T12:25:49.428Z,981.23
2023-03-26T12:26:49.475Z,981.22
2023-03-26T12:27:49.423Z,981.22
2023-03-26T12:28:49.440Z,981.21